sensor_id;sensor_type;location;lat;lon;timestamp;P1;durP1;ratioP1;P2;durP2;ratioP2
60100;SDS011;45978;53.646;55.930;2022-08-20T00:00:33;13.50;;;5.60;;
60100;SDS011;45978;53.646;55.930;2022-08-20T00:01:36;5.80;;;4.90;;
60100;SDS011;45978;53.646;55.930;2022-08-20T00:02:38;9.55;;;4.72;;
60100;SDS011;45978;53.646;55.930;2022-08-20T00:03:43;8.63;;;5.05;;
60100;SDS011;45978;53.646;55.930;2022-08-20T00:04:44;8.02;;;4.78;;
60100;SDS011;45978;53.646;55.930;2022-08-20T00:05:50;7.88;;;4.93;;
60100;SDS011;45978;53.646;55.930;2022-08-20T00:06:54;9.02;;;5.18;;
60100;SDS011;45978;53.646;55.930;2022-08-20T00:07:55;10.02;;;5.15;;
60100;SDS011;45978;53.646;55.930;2022-08-20T00:08:58;14.57;;;5.18;;
60100;SDS011;45978;53.646;55.930;2022-08-20T00:10:00;13.02;;;5.05;;
60100;SDS011;45978;53.646;55.930;2022-08-20T00:11:04;10.35;;;4.85;;
60100;SDS011;45978;53.646;55.930;2022-08-20T00:12:08;5.43;;;4.90;;
60100;SDS011;45978;53.646;55.930;2022-08-20T00:13:11;7.60;;;4.93;;
60100;SDS011;45978;53.646;55.930;2022-08-20T00:14:15;6.63;;;4.93;;
60100;SDS011;45978;53.646;55.930;2022-08-20T00:15:18;10.95;;;5.32;;
60100;SDS011;45978;53.646;55.930;2022-08-20T00:16:23;10.43;;;5.13;;
60100;SDS011;45978;53.646;55.930;2022-08-20T00:17:26;5.95;;;5.18;;
60100;SDS011;45978;53.646;55.930;2022-08-20T00:18:33;11.30;;;5.72;;
60100;SDS011;45978;53.646;55.930;2022-08-20T00:19:37;11.82;;;5.10;;
60100;SDS011;45978;53.646;55.930;2022-08-20T00:20:40;5.32;;;4.82;;
60100;SDS011;45978;53.646;55.930;2022-08-20T00:21:45;15.50;;;4.88;;
60100;SDS011;45978;53.646;55.930;2022-08-20T00:22:46;13.63;;;4.75;;
60100;SDS011;45978;53.646;55.930;2022-08-20T00:23:48;9.10;;;4.70;;
60100;SDS011;45978;53.646;55.930;2022-08-20T00:24:50;8.25;;;4.72;;
60100;SDS011;45978;53.646;55.930;2022-08-20T00:25:52;9.32;;;5.40;;
60100;SDS011;45978;53.646;55.930;2022-08-20T00:26:53;5.93;;;4.30;;
60100;SDS011;45978;53.646;55.930;2022-08-20T00:27:55;9.02;;;5.55;;
60100;SDS011;45978;53.646;55.930;2022-08-20T00:28:57;8.95;;;4.63;;
60100;SDS011;45978;53.646;55.930;2022-08-20T00:29:58;5.88;;;5.18;;
60100;SDS011;45978;53.646;55.930;2022-08-20T00:31:01;6.75;;;5.03;;
60100;SDS011;45978;53.646;55.930;2022-08-20T00:32:08;8.55;;;5.20;;
60100;SDS011;45978;53.646;55.930;2022-08-20T00:33:12;7.32;;;4.97;;
60100;SDS011;45978;53.646;55.930;2022-08-20T00:34:18;6.35;;;4.93;;
60100;SDS011;45978;53.646;55.930;2022-08-20T00:35:22;8.73;;;4.60;;
60100;SDS011;45978;53.646;55.930;2022-08-20T00:36:32;7.28;;;5.32;;
60100;SDS011;45978;53.646;55.930;2022-08-20T00:37:33;9.82;;;4.78;;
60100;SDS011;45978;53.646;55.930;2022-08-20T00:38:38;5.88;;;4.65;;
60100;SDS011;45978;53.646;55.930;2022-08-20T00:39:41;8.13;;;5.10;;
60100;SDS011;45978;53.646;55.930;2022-08-20T00:40:44;11.50;;;4.78;;
60100;SDS011;45978;53.646;55.930;2022-08-20T00:41:53;19.08;;;5.30;;
60100;SDS011;45978;53.646;55.930;2022-08-20T00:42:55;6.50;;;4.57;;
60100;SDS011;45978;53.646;55.930;2022-08-20T00:45:14;6.45;;;5.50;;
60100;SDS011;45978;53.646;55.930;2022-08-20T00:46:24;8.30;;;4.85;;
60100;SDS011;45978;53.646;55.930;2022-08-20T00:47:27;7.93;;;5.20;;
60100;SDS011;45978;53.646;55.930;2022-08-20T00:48:29;11.98;;;5.03;;
60100;SDS011;45978;53.646;55.930;2022-08-20T00:49:31;9.93;;;5.32;;
60100;SDS011;45978;53.646;55.930;2022-08-20T00:50:34;12.05;;;5.05;;
60100;SDS011;45978;53.646;55.930;2022-08-20T00:51:38;16.75;;;5.28;;
60100;SDS011;45978;53.646;55.930;2022-08-20T00:52:42;9.25;;;5.03;;
60100;SDS011;45978;53.646;55.930;2022-08-20T00:53:45;7.55;;;4.60;;
60100;SDS011;45978;53.646;55.930;2022-08-20T00:54:57;12.02;;;5.05;;
60100;SDS011;45978;53.646;55.930;2022-08-20T00:56:00;7.88;;;4.72;;
60100;SDS011;45978;53.646;55.930;2022-08-20T00:57:09;7.43;;;5.50;;
60100;SDS011;45978;53.646;55.930;2022-08-20T00:58:18;7.22;;;4.30;;
60100;SDS011;45978;53.646;55.930;2022-08-20T00:59:22;22.33;;;5.07;;
60100;SDS011;45978;53.646;55.930;2022-08-20T01:00:28;10.90;;;5.35;;
60100;SDS011;45978;53.646;55.930;2022-08-20T01:01:31;11.80;;;5.10;;
60100;SDS011;45978;53.646;55.930;2022-08-20T01:02:34;7.80;;;4.78;;
60100;SDS011;45978;53.646;55.930;2022-08-20T01:03:35;16.35;;;5.43;;
60100;SDS011;45978;53.646;55.930;2022-08-20T01:04:36;12.73;;;5.20;;
60100;SDS011;45978;53.646;55.930;2022-08-20T01:05:38;7.63;;;5.18;;
60100;SDS011;45978;53.646;55.930;2022-08-20T01:06:42;16.63;;;5.80;;
60100;SDS011;45978;53.646;55.930;2022-08-20T01:07:44;17.13;;;5.45;;
60100;SDS011;45978;53.646;55.930;2022-08-20T01:08:45;11.05;;;4.97;;
60100;SDS011;45978;53.646;55.930;2022-08-20T01:09:46;6.88;;;5.57;;
60100;SDS011;45978;53.646;55.930;2022-08-20T01:10:49;10.52;;;5.30;;
60100;SDS011;45978;53.646;55.930;2022-08-20T01:11:53;8.20;;;5.28;;
60100;SDS011;45978;53.646;55.930;2022-08-20T01:12:56;7.97;;;4.75;;
60100;SDS011;45978;53.646;55.930;2022-08-20T01:14:05;14.55;;;6.22;;
60100;SDS011;45978;53.646;55.930;2022-08-20T01:15:21;8.85;;;4.97;;
60100;SDS011;45978;53.646;55.930;2022-08-20T01:16:26;8.25;;;4.88;;
60100;SDS011;45978;53.646;55.930;2022-08-20T01:17:31;14.05;;;6.03;;
60100;SDS011;45978;53.646;55.930;2022-08-20T01:18:36;13.15;;;5.00;;
60100;SDS011;45978;53.646;55.930;2022-08-20T01:19:40;10.35;;;5.18;;
60100;SDS011;45978;53.646;55.930;2022-08-20T01:20:55;13.48;;;5.13;;
60100;SDS011;45978;53.646;55.930;2022-08-20T01:21:59;24.67;;;5.75;;
60100;SDS011;45978;53.646;55.930;2022-08-20T01:23:25;21.20;;;5.78;;
60100;SDS011;45978;53.646;55.930;2022-08-20T01:24:35;18.95;;;6.50;;
60100;SDS011;45978;53.646;55.930;2022-08-20T01:25:48;20.58;;;6.13;;
60100;SDS011;45978;53.646;55.930;2022-08-20T01:26:53;18.02;;;5.85;;
60100;SDS011;45978;53.646;55.930;2022-08-20T01:27:54;16.75;;;5.68;;
60100;SDS011;45978;53.646;55.930;2022-08-20T01:30:03;25.20;;;8.13;;
60100;SDS011;45978;53.646;55.930;2022-08-20T01:31:06;19.73;;;5.95;;
60100;SDS011;45978;53.646;55.930;2022-08-20T01:32:09;12.63;;;6.32;;
60100;SDS011;45978;53.646;55.930;2022-08-20T01:33:10;18.30;;;6.40;;
60100;SDS011;45978;53.646;55.930;2022-08-20T01:34:13;25.45;;;6.30;;
60100;SDS011;45978;53.646;55.930;2022-08-20T01:35:19;19.10;;;5.97;;
60100;SDS011;45978;53.646;55.930;2022-08-20T01:36:24;22.88;;;6.50;;
60100;SDS011;45978;53.646;55.930;2022-08-20T01:37:35;18.63;;;6.13;;
60100;SDS011;45978;53.646;55.930;2022-08-20T01:38:36;14.05;;;6.22;;
60100;SDS011;45978;53.646;55.930;2022-08-20T01:39:39;14.70;;;5.82;;
60100;SDS011;45978;53.646;55.930;2022-08-20T01:40:46;13.85;;;6.43;;
60100;SDS011;45978;53.646;55.930;2022-08-20T01:43:14;20.17;;;8.27;;
60100;SDS011;45978;53.646;55.930;2022-08-20T01:44:15;15.98;;;5.82;;
60100;SDS011;45978;53.646;55.930;2022-08-20T01:45:18;24.92;;;6.70;;
60100;SDS011;45978;53.646;55.930;2022-08-20T01:46:19;10.55;;;6.18;;
60100;SDS011;45978;53.646;55.930;2022-08-20T01:47:22;9.95;;;5.88;;
60100;SDS011;45978;53.646;55.930;2022-08-20T01:48:28;7.95;;;6.03;;
60100;SDS011;45978;53.646;55.930;2022-08-20T01:49:31;16.70;;;6.10;;
60100;SDS011;45978;53.646;55.930;2022-08-20T01:50:34;14.90;;;6.00;;
60100;SDS011;45978;53.646;55.930;2022-08-20T01:51:41;13.75;;;5.70;;
60100;SDS011;45978;53.646;55.930;2022-08-20T01:54:23;6.72;;;5.00;;
60100;SDS011;45978;53.646;55.930;2022-08-20T01:55:25;17.05;;;5.43;;
60100;SDS011;45978;53.646;55.930;2022-08-20T01:56:29;17.60;;;5.70;;
60100;SDS011;45978;53.646;55.930;2022-08-20T01:57:31;9.88;;;5.22;;
60100;SDS011;45978;53.646;55.930;2022-08-20T01:58:33;8.98;;;5.20;;
60100;SDS011;45978;53.646;55.930;2022-08-20T01:59:37;10.95;;;4.97;;
60100;SDS011;45978;53.646;55.930;2022-08-20T02:00:39;14.10;;;5.00;;
60100;SDS011;45978;53.646;55.930;2022-08-20T02:01:40;18.00;;;5.40;;
60100;SDS011;45978;53.646;55.930;2022-08-20T02:02:41;13.98;;;5.40;;
60100;SDS011;45978;53.646;55.930;2022-08-20T02:03:42;9.48;;;4.68;;
60100;SDS011;45978;53.646;55.930;2022-08-20T02:04:44;13.52;;;5.03;;
60100;SDS011;45978;53.646;55.930;2022-08-20T02:05:45;10.70;;;4.90;;
60100;SDS011;45978;53.646;55.930;2022-08-20T02:06:48;16.50;;;5.85;;
60100;SDS011;45978;53.646;55.930;2022-08-20T02:07:51;13.32;;;5.43;;
60100;SDS011;45978;53.646;55.930;2022-08-20T02:08:54;20.85;;;5.72;;
60100;SDS011;45978;53.646;55.930;2022-08-20T02:09:57;14.18;;;4.68;;
60100;SDS011;45978;53.646;55.930;2022-08-20T02:10:58;7.63;;;4.82;;
60100;SDS011;45978;53.646;55.930;2022-08-20T02:11:59;13.30;;;5.35;;
60100;SDS011;45978;53.646;55.930;2022-08-20T02:13:03;16.05;;;5.00;;
60100;SDS011;45978;53.646;55.930;2022-08-20T02:14:06;14.38;;;4.60;;
60100;SDS011;45978;53.646;55.930;2022-08-20T02:15:09;13.90;;;4.88;;
60100;SDS011;45978;53.646;55.930;2022-08-20T02:16:12;28.60;;;5.60;;
60100;SDS011;45978;53.646;55.930;2022-08-20T02:17:14;19.88;;;6.00;;
60100;SDS011;45978;53.646;55.930;2022-08-20T02:18:16;14.23;;;5.45;;
60100;SDS011;45978;53.646;55.930;2022-08-20T02:19:19;16.95;;;5.70;;
60100;SDS011;45978;53.646;55.930;2022-08-20T02:20:23;16.88;;;5.50;;
60100;SDS011;45978;53.646;55.930;2022-08-20T02:21:28;8.77;;;5.55;;
60100;SDS011;45978;53.646;55.930;2022-08-20T02:23:39;14.40;;;5.63;;
60100;SDS011;45978;53.646;55.930;2022-08-20T02:24:40;25.00;;;6.10;;
60100;SDS011;45978;53.646;55.930;2022-08-20T02:25:42;14.18;;;5.53;;
60100;SDS011;45978;53.646;55.930;2022-08-20T02:26:47;9.57;;;4.38;;
60100;SDS011;45978;53.646;55.930;2022-08-20T02:27:50;10.88;;;4.30;;
60100;SDS011;45978;53.646;55.930;2022-08-20T02:28:52;13.02;;;5.00;;
60100;SDS011;45978;53.646;55.930;2022-08-20T02:29:55;9.60;;;4.40;;
60100;SDS011;45978;53.646;55.930;2022-08-20T02:30:56;14.27;;;4.88;;
60100;SDS011;45978;53.646;55.930;2022-08-20T02:31:57;10.10;;;4.85;;
60100;SDS011;45978;53.646;55.930;2022-08-20T02:33:00;15.88;;;5.45;;
60100;SDS011;45978;53.646;55.930;2022-08-20T02:34:03;18.50;;;5.47;;
60100;SDS011;45978;53.646;55.930;2022-08-20T02:35:07;22.02;;;5.43;;
60100;SDS011;45978;53.646;55.930;2022-08-20T02:36:12;14.88;;;5.10;;
60100;SDS011;45978;53.646;55.930;2022-08-20T02:37:16;21.65;;;5.88;;
60100;SDS011;45978;53.646;55.930;2022-08-20T02:38:18;33.55;;;6.20;;
60100;SDS011;45978;53.646;55.930;2022-08-20T02:39:19;23.23;;;6.28;;
60100;SDS011;45978;53.646;55.930;2022-08-20T02:40:22;18.48;;;6.15;;
60100;SDS011;45978;53.646;55.930;2022-08-20T02:41:25;11.70;;;5.88;;
60100;SDS011;45978;53.646;55.930;2022-08-20T02:42:27;15.48;;;5.90;;
60100;SDS011;45978;53.646;55.930;2022-08-20T02:43:28;13.90;;;5.72;;
60100;SDS011;45978;53.646;55.930;2022-08-20T02:44:31;16.88;;;6.50;;
60100;SDS011;45978;53.646;55.930;2022-08-20T02:45:32;18.45;;;6.65;;
60100;SDS011;45978;53.646;55.930;2022-08-20T02:46:43;19.27;;;6.35;;
60100;SDS011;45978;53.646;55.930;2022-08-20T02:47:44;14.93;;;6.20;;
60100;SDS011;45978;53.646;55.930;2022-08-20T02:48:46;14.00;;;5.32;;
60100;SDS011;45978;53.646;55.930;2022-08-20T02:49:47;12.85;;;5.70;;
60100;SDS011;45978;53.646;55.930;2022-08-20T02:50:50;18.40;;;5.70;;
60100;SDS011;45978;53.646;55.930;2022-08-20T02:51:56;11.73;;;5.40;;
60100;SDS011;45978;53.646;55.930;2022-08-20T02:52:57;11.52;;;5.13;;
60100;SDS011;45978;53.646;55.930;2022-08-20T02:53:58;9.77;;;5.10;;
60100;SDS011;45978;53.646;55.930;2022-08-20T02:55:00;8.32;;;4.68;;
60100;SDS011;45978;53.646;55.930;2022-08-20T02:56:01;12.63;;;5.32;;
60100;SDS011;45978;53.646;55.930;2022-08-20T02:57:04;13.77;;;5.13;;
60100;SDS011;45978;53.646;55.930;2022-08-20T02:58:11;9.63;;;5.47;;
60100;SDS011;45978;53.646;55.930;2022-08-20T02:59:12;8.77;;;5.10;;
60100;SDS011;45978;53.646;55.930;2022-08-20T03:00:15;6.07;;;5.13;;
60100;SDS011;45978;53.646;55.930;2022-08-20T03:01:18;11.45;;;5.03;;
60100;SDS011;45978;53.646;55.930;2022-08-20T03:02:19;9.13;;;5.43;;
60100;SDS011;45978;53.646;55.930;2022-08-20T03:03:21;8.50;;;5.18;;
60100;SDS011;45978;53.646;55.930;2022-08-20T03:04:23;15.98;;;5.53;;
60100;SDS011;45978;53.646;55.930;2022-08-20T03:05:25;16.17;;;5.85;;
60100;SDS011;45978;53.646;55.930;2022-08-20T03:06:26;17.80;;;6.50;;
60100;SDS011;45978;53.646;55.930;2022-08-20T03:07:28;17.70;;;5.75;;
60100;SDS011;45978;53.646;55.930;2022-08-20T03:08:29;15.18;;;5.15;;
60100;SDS011;45978;53.646;55.930;2022-08-20T03:09:31;10.90;;;5.93;;
60100;SDS011;45978;53.646;55.930;2022-08-20T03:10:33;11.75;;;6.20;;
60100;SDS011;45978;53.646;55.930;2022-08-20T03:11:35;8.65;;;5.85;;
60100;SDS011;45978;53.646;55.930;2022-08-20T03:12:39;17.83;;;6.47;;
60100;SDS011;45978;53.646;55.930;2022-08-20T03:13:40;19.05;;;6.60;;
60100;SDS011;45978;53.646;55.930;2022-08-20T03:14:41;11.00;;;7.22;;
60100;SDS011;45978;53.646;55.930;2022-08-20T03:15:44;14.18;;;7.25;;
60100;SDS011;45978;53.646;55.930;2022-08-20T03:16:53;11.85;;;7.22;;
60100;SDS011;45978;53.646;55.930;2022-08-20T03:17:55;10.95;;;7.40;;
60100;SDS011;45978;53.646;55.930;2022-08-20T03:18:56;10.63;;;7.45;;
60100;SDS011;45978;53.646;55.930;2022-08-20T03:19:57;8.63;;;7.55;;
60100;SDS011;45978;53.646;55.930;2022-08-20T03:20:59;12.65;;;7.28;;
60100;SDS011;45978;53.646;55.930;2022-08-20T03:22:00;11.15;;;7.72;;
60100;SDS011;45978;53.646;55.930;2022-08-20T03:23:01;10.65;;;7.55;;
60100;SDS011;45978;53.646;55.930;2022-08-20T03:24:03;13.15;;;7.97;;
60100;SDS011;45978;53.646;55.930;2022-08-20T03:25:04;17.67;;;7.60;;
60100;SDS011;45978;53.646;55.930;2022-08-20T03:26:06;19.08;;;7.60;;
60100;SDS011;45978;53.646;55.930;2022-08-20T03:27:10;12.38;;;8.52;;
60100;SDS011;45978;53.646;55.930;2022-08-20T03:28:13;8.25;;;7.43;;
60100;SDS011;45978;53.646;55.930;2022-08-20T03:29:15;13.98;;;7.28;;
60100;SDS011;45978;53.646;55.930;2022-08-20T03:30:16;9.18;;;6.72;;
60100;SDS011;45978;53.646;55.930;2022-08-20T03:31:19;14.52;;;7.55;;
60100;SDS011;45978;53.646;55.930;2022-08-20T03:32:21;10.75;;;7.75;;
60100;SDS011;45978;53.646;55.930;2022-08-20T03:33:22;12.38;;;7.97;;
60100;SDS011;45978;53.646;55.930;2022-08-20T03:34:23;13.57;;;8.00;;
60100;SDS011;45978;53.646;55.930;2022-08-20T03:35:25;16.63;;;8.02;;
60100;SDS011;45978;53.646;55.930;2022-08-20T03:36:28;9.82;;;7.32;;
60100;SDS011;45978;53.646;55.930;2022-08-20T03:37:30;10.27;;;7.78;;
60100;SDS011;45978;53.646;55.930;2022-08-20T03:38:32;44.88;;;9.27;;
60100;SDS011;45978;53.646;55.930;2022-08-20T03:39:34;13.55;;;8.32;;
60100;SDS011;45978;53.646;55.930;2022-08-20T03:40:35;11.35;;;8.95;;
60100;SDS011;45978;53.646;55.930;2022-08-20T03:41:37;12.60;;;9.10;;
60100;SDS011;45978;53.646;55.930;2022-08-20T03:42:38;12.00;;;9.32;;
60100;SDS011;45978;53.646;55.930;2022-08-20T03:43:42;12.27;;;10.98;;
60100;SDS011;45978;53.646;55.930;2022-08-20T03:44:43;18.38;;;11.23;;
60100;SDS011;45978;53.646;55.930;2022-08-20T03:45:44;19.17;;;11.70;;
60100;SDS011;45978;53.646;55.930;2022-08-20T03:46:47;13.70;;;11.13;;
60100;SDS011;45978;53.646;55.930;2022-08-20T03:47:48;13.45;;;11.27;;
60100;SDS011;45978;53.646;55.930;2022-08-20T03:48:51;14.68;;;11.13;;
60100;SDS011;45978;53.646;55.930;2022-08-20T03:49:57;15.57;;;10.60;;
60100;SDS011;45978;53.646;55.930;2022-08-20T03:50:59;14.93;;;10.02;;
60100;SDS011;45978;53.646;55.930;2022-08-20T03:52:01;13.38;;;9.35;;
60100;SDS011;45978;53.646;55.930;2022-08-20T03:53:04;12.93;;;9.40;;
60100;SDS011;45978;53.646;55.930;2022-08-20T03:54:05;12.18;;;7.82;;
60100;SDS011;45978;53.646;55.930;2022-08-20T03:55:06;13.95;;;7.00;;
60100;SDS011;45978;53.646;55.930;2022-08-20T03:56:09;9.75;;;6.88;;
60100;SDS011;45978;53.646;55.930;2022-08-20T03:57:13;10.75;;;6.90;;
60100;SDS011;45978;53.646;55.930;2022-08-20T03:58:16;10.43;;;6.90;;
60100;SDS011;45978;53.646;55.930;2022-08-20T03:59:18;8.77;;;6.75;;
60100;SDS011;45978;53.646;55.930;2022-08-20T04:00:24;8.68;;;6.13;;
60100;SDS011;45978;53.646;55.930;2022-08-20T04:01:37;10.85;;;6.43;;
60100;SDS011;45978;53.646;55.930;2022-08-20T04:02:38;12.45;;;7.05;;
60100;SDS011;45978;53.646;55.930;2022-08-20T04:03:40;12.68;;;7.95;;
60100;SDS011;45978;53.646;55.930;2022-08-20T04:04:41;33.55;;;8.18;;
60100;SDS011;45978;53.646;55.930;2022-08-20T04:05:43;7.63;;;6.93;;
60100;SDS011;45978;53.646;55.930;2022-08-20T04:06:46;10.38;;;6.28;;
60100;SDS011;45978;53.646;55.930;2022-08-20T04:07:47;12.15;;;6.43;;
60100;SDS011;45978;53.646;55.930;2022-08-20T04:08:50;14.73;;;6.50;;
60100;SDS011;45978;53.646;55.930;2022-08-20T04:09:54;10.93;;;6.93;;
60100;SDS011;45978;53.646;55.930;2022-08-20T04:10:56;11.25;;;6.40;;
60100;SDS011;45978;53.646;55.930;2022-08-20T04:11:57;9.90;;;6.03;;
60100;SDS011;45978;53.646;55.930;2022-08-20T04:13:00;11.73;;;6.40;;
60100;SDS011;45978;53.646;55.930;2022-08-20T04:14:03;15.13;;;6.63;;
60100;SDS011;45978;53.646;55.930;2022-08-20T04:15:04;13.18;;;7.00;;
60100;SDS011;45978;53.646;55.930;2022-08-20T04:16:06;12.60;;;6.90;;
60100;SDS011;45978;53.646;55.930;2022-08-20T04:17:09;15.40;;;7.28;;
60100;SDS011;45978;53.646;55.930;2022-08-20T04:18:12;16.50;;;7.53;;
60100;SDS011;45978;53.646;55.930;2022-08-20T04:19:14;18.15;;;7.15;;
60100;SDS011;45978;53.646;55.930;2022-08-20T04:20:17;11.60;;;7.47;;
60100;SDS011;45978;53.646;55.930;2022-08-20T04:21:22;10.93;;;7.57;;
60100;SDS011;45978;53.646;55.930;2022-08-20T04:22:23;9.43;;;8.50;;
60100;SDS011;45978;53.646;55.930;2022-08-20T04:23:24;16.95;;;12.05;;
60100;SDS011;45978;53.646;55.930;2022-08-20T04:24:25;22.08;;;12.05;;
60100;SDS011;45978;53.646;55.930;2022-08-20T04:25:27;18.05;;;15.70;;
60100;SDS011;45978;53.646;55.930;2022-08-20T04:26:31;14.07;;;12.60;;
60100;SDS011;45978;53.646;55.930;2022-08-20T04:27:36;14.52;;;12.35;;
60100;SDS011;45978;53.646;55.930;2022-08-20T04:28:39;17.77;;;15.95;;
60100;SDS011;45978;53.646;55.930;2022-08-20T04:29:40;16.50;;;13.57;;
60100;SDS011;45978;53.646;55.930;2022-08-20T04:30:44;14.82;;;9.10;;
60100;SDS011;45978;53.646;55.930;2022-08-20T04:31:45;11.40;;;8.40;;
60100;SDS011;45978;53.646;55.930;2022-08-20T04:32:46;7.22;;;6.38;;
60100;SDS011;45978;53.646;55.930;2022-08-20T04:33:49;7.63;;;6.07;;
60100;SDS011;45978;53.646;55.930;2022-08-20T04:34:51;11.20;;;7.22;;
60100;SDS011;45978;53.646;55.930;2022-08-20T04:35:53;13.43;;;10.07;;
60100;SDS011;45978;53.646;55.930;2022-08-20T04:36:54;12.95;;;9.55;;
60100;SDS011;45978;53.646;55.930;2022-08-20T04:37:58;10.80;;;9.65;;
60100;SDS011;45978;53.646;55.930;2022-08-20T04:39:04;17.13;;;13.75;;
60100;SDS011;45978;53.646;55.930;2022-08-20T04:40:07;20.55;;;14.48;;
60100;SDS011;45978;53.646;55.930;2022-08-20T04:41:30;17.73;;;12.35;;
60100;SDS011;45978;53.646;55.930;2022-08-20T04:42:33;14.20;;;12.77;;
60100;SDS011;45978;53.646;55.930;2022-08-20T04:43:35;19.90;;;12.10;;
60100;SDS011;45978;53.646;55.930;2022-08-20T04:44:37;11.70;;;10.20;;
60100;SDS011;45978;53.646;55.930;2022-08-20T04:45:39;17.13;;;9.40;;
60100;SDS011;45978;53.646;55.930;2022-08-20T04:46:41;9.18;;;6.40;;
60100;SDS011;45978;53.646;55.930;2022-08-20T04:47:43;13.82;;;8.07;;
60100;SDS011;45978;53.646;55.930;2022-08-20T04:48:45;10.18;;;6.60;;
60100;SDS011;45978;53.646;55.930;2022-08-20T04:49:47;8.90;;;6.40;;
60100;SDS011;45978;53.646;55.930;2022-08-20T04:50:51;10.75;;;6.20;;
60100;SDS011;45978;53.646;55.930;2022-08-20T04:51:53;12.77;;;6.32;;
60100;SDS011;45978;53.646;55.930;2022-08-20T04:52:54;18.80;;;7.20;;
60100;SDS011;45978;53.646;55.930;2022-08-20T04:53:58;14.75;;;7.35;;
60100;SDS011;45978;53.646;55.930;2022-08-20T04:55:00;12.05;;;6.88;;
60100;SDS011;45978;53.646;55.930;2022-08-20T04:56:03;9.38;;;6.65;;
60100;SDS011;45978;53.646;55.930;2022-08-20T04:57:04;7.28;;;6.40;;
60100;SDS011;45978;53.646;55.930;2022-08-20T04:58:12;8.98;;;6.30;;
60100;SDS011;45978;53.646;55.930;2022-08-20T04:59:17;17.17;;;6.50;;
60100;SDS011;45978;53.646;55.930;2022-08-20T05:00:19;11.57;;;6.32;;
60100;SDS011;45978;53.646;55.930;2022-08-20T05:01:20;50.78;;;8.00;;
60100;SDS011;45978;53.646;55.930;2022-08-20T05:02:23;10.93;;;5.82;;
60100;SDS011;45978;53.646;55.930;2022-08-20T05:03:25;19.95;;;6.68;;
60100;SDS011;45978;53.646;55.930;2022-08-20T05:04:26;18.55;;;6.72;;
60100;SDS011;45978;53.646;55.930;2022-08-20T05:05:28;15.82;;;6.97;;
60100;SDS011;45978;53.646;55.930;2022-08-20T05:06:30;8.52;;;6.82;;
60100;SDS011;45978;53.646;55.930;2022-08-20T05:07:32;11.48;;;6.32;;
60100;SDS011;45978;53.646;55.930;2022-08-20T05:08:42;20.08;;;6.65;;
60100;SDS011;45978;53.646;55.930;2022-08-20T05:09:44;10.40;;;5.93;;
60100;SDS011;45978;53.646;55.930;2022-08-20T05:10:47;16.67;;;6.10;;
60100;SDS011;45978;53.646;55.930;2022-08-20T05:11:50;8.35;;;6.45;;
60100;SDS011;45978;53.646;55.930;2022-08-20T05:12:52;11.82;;;5.90;;
60100;SDS011;45978;53.646;55.930;2022-08-20T05:13:54;11.20;;;6.03;;
60100;SDS011;45978;53.646;55.930;2022-08-20T05:14:55;9.00;;;5.38;;
60100;SDS011;45978;53.646;55.930;2022-08-20T05:15:57;11.70;;;5.82;;
60100;SDS011;45978;53.646;55.930;2022-08-20T05:17:02;8.55;;;5.88;;
60100;SDS011;45978;53.646;55.930;2022-08-20T05:18:05;11.80;;;5.78;;
60100;SDS011;45978;53.646;55.930;2022-08-20T05:19:09;10.85;;;6.05;;
60100;SDS011;45978;53.646;55.930;2022-08-20T05:20:14;10.55;;;5.95;;
60100;SDS011;45978;53.646;55.930;2022-08-20T05:21:17;10.98;;;6.05;;
60100;SDS011;45978;53.646;55.930;2022-08-20T05:22:19;13.48;;;6.20;;
60100;SDS011;45978;53.646;55.930;2022-08-20T05:23:20;9.68;;;6.00;;
60100;SDS011;45978;53.646;55.930;2022-08-20T05:24:23;10.70;;;5.97;;
60100;SDS011;45978;53.646;55.930;2022-08-20T05:25:25;7.07;;;5.68;;
60100;SDS011;45978;53.646;55.930;2022-08-20T05:26:30;7.72;;;5.32;;
60100;SDS011;45978;53.646;55.930;2022-08-20T05:27:33;7.95;;;5.50;;
60100;SDS011;45978;53.646;55.930;2022-08-20T05:28:35;10.60;;;5.65;;
60100;SDS011;45978;53.646;55.930;2022-08-20T05:29:37;9.93;;;5.80;;
60100;SDS011;45978;53.646;55.930;2022-08-20T05:30:39;20.67;;;5.70;;
60100;SDS011;45978;53.646;55.930;2022-08-20T05:31:43;11.30;;;5.25;;
60100;SDS011;45978;53.646;55.930;2022-08-20T05:32:44;10.73;;;5.43;;
60100;SDS011;45978;53.646;55.930;2022-08-20T05:33:46;11.18;;;5.53;;
60100;SDS011;45978;53.646;55.930;2022-08-20T05:34:51;10.38;;;5.80;;
60100;SDS011;45978;53.646;55.930;2022-08-20T05:35:54;7.68;;;5.70;;
60100;SDS011;45978;53.646;55.930;2022-08-20T05:36:56;12.65;;;5.72;;
60100;SDS011;45978;53.646;55.930;2022-08-20T05:37:57;14.38;;;5.70;;
60100;SDS011;45978;53.646;55.930;2022-08-20T05:38:58;7.85;;;4.93;;
60100;SDS011;45978;53.646;55.930;2022-08-20T05:40:00;7.13;;;5.03;;
60100;SDS011;45978;53.646;55.930;2022-08-20T05:41:01;9.82;;;5.28;;
60100;SDS011;45978;53.646;55.930;2022-08-20T05:42:03;7.90;;;6.05;;
60100;SDS011;45978;53.646;55.930;2022-08-20T05:43:05;9.07;;;6.07;;
60100;SDS011;45978;53.646;55.930;2022-08-20T05:44:07;7.93;;;5.25;;
60100;SDS011;45978;53.646;55.930;2022-08-20T05:45:12;21.23;;;6.00;;
60100;SDS011;45978;53.646;55.930;2022-08-20T05:46:16;11.75;;;5.65;;
60100;SDS011;45978;53.646;55.930;2022-08-20T05:47:17;14.70;;;5.65;;
60100;SDS011;45978;53.646;55.930;2022-08-20T05:48:20;8.35;;;4.78;;
60100;SDS011;45978;53.646;55.930;2022-08-20T05:49:22;6.57;;;5.20;;
60100;SDS011;45978;53.646;55.930;2022-08-20T05:50:23;5.80;;;5.20;;
60100;SDS011;45978;53.646;55.930;2022-08-20T05:51:25;6.07;;;5.10;;
60100;SDS011;45978;53.646;55.930;2022-08-20T05:52:27;6.07;;;5.30;;
60100;SDS011;45978;53.646;55.930;2022-08-20T05:53:32;11.00;;;5.82;;
60100;SDS011;45978;53.646;55.930;2022-08-20T05:54:33;8.02;;;5.30;;
60100;SDS011;45978;53.646;55.930;2022-08-20T05:55:38;15.40;;;6.90;;
60100;SDS011;45978;53.646;55.930;2022-08-20T05:56:39;11.23;;;5.78;;
60100;SDS011;45978;53.646;55.930;2022-08-20T05:57:41;12.98;;;6.10;;
60100;SDS011;45978;53.646;55.930;2022-08-20T05:58:42;8.18;;;6.00;;
60100;SDS011;45978;53.646;55.930;2022-08-20T05:59:43;11.30;;;5.55;;
60100;SDS011;45978;53.646;55.930;2022-08-20T06:00:45;9.38;;;5.70;;
60100;SDS011;45978;53.646;55.930;2022-08-20T06:01:46;14.82;;;6.10;;
60100;SDS011;45978;53.646;55.930;2022-08-20T06:02:48;9.20;;;5.45;;
60100;SDS011;45978;53.646;55.930;2022-08-20T06:04:08;7.20;;;5.20;;
60100;SDS011;45978;53.646;55.930;2022-08-20T06:05:26;6.80;;;5.60;;
60100;SDS011;45978;53.646;55.930;2022-08-20T06:06:27;9.40;;;5.20;;
60100;SDS011;45978;53.646;55.930;2022-08-20T06:07:28;16.55;;;5.20;;
60100;SDS011;45978;53.646;55.930;2022-08-20T06:08:30;10.45;;;4.82;;
60100;SDS011;45978;53.646;55.930;2022-08-20T06:09:31;13.32;;;5.63;;
60100;SDS011;45978;53.646;55.930;2022-08-20T06:10:33;9.23;;;5.22;;
60100;SDS011;45978;53.646;55.930;2022-08-20T06:11:35;11.30;;;5.30;;
60100;SDS011;45978;53.646;55.930;2022-08-20T06:12:37;6.68;;;5.45;;
60100;SDS011;45978;53.646;55.930;2022-08-20T06:13:38;7.50;;;5.43;;
60100;SDS011;45978;53.646;55.930;2022-08-20T06:14:40;6.82;;;4.95;;
60100;SDS011;45978;53.646;55.930;2022-08-20T06:15:42;11.45;;;5.70;;
60100;SDS011;45978;53.646;55.930;2022-08-20T06:16:44;10.88;;;5.60;;
60100;SDS011;45978;53.646;55.930;2022-08-20T06:17:46;13.25;;;5.63;;